sensor_id;sensor_type;location;lat;lon;timestamp;P1;durP1;ratioP1;P2;durP2;ratioP2
49590;SDS011;35496;-21.974;-46.800;2023-07-24T00:01:55;6.60;;;3.75;;
49590;SDS011;35496;-21.974;-46.800;2023-07-24T00:04:21;7.75;;;3.58;;
49590;SDS011;35496;-21.974;-46.800;2023-07-24T00:06:47;4.25;;;2.35;;
49590;SDS011;35496;-21.974;-46.800;2023-07-24T00:09:13;3.78;;;3.28;;
49590;SDS011;35496;-21.974;-46.800;2023-07-24T00:11:39;10.05;;;3.85;;
49590;SDS011;35496;-21.974;-46.800;2023-07-24T00:14:05;5.78;;;2.78;;
49590;SDS011;35496;-21.974;-46.800;2023-07-24T00:16:32;6.13;;;2.53;;
49590;SDS011;35496;-21.974;-46.800;2023-07-24T00:18:58;3.47;;;2.50;;
49590;SDS011;35496;-21.974;-46.800;2023-07-24T00:21:24;7.53;;;3.80;;
49590;SDS011;35496;-21.974;-46.800;2023-07-24T00:23:50;5.95;;;2.83;;
49590;SDS011;35496;-21.974;-46.800;2023-07-24T00:26:16;5.43;;;2.75;;
49590;SDS011;35496;-21.974;-46.800;2023-07-24T00:28:42;2.58;;;2.35;;
49590;SDS011;35496;-21.974;-46.800;2023-07-24T00:31:08;7.20;;;2.95;;
49590;SDS011;35496;-21.974;-46.800;2023-07-24T00:33:34;5.03;;;2.60;;
49590;SDS011;35496;-21.974;-46.800;2023-07-24T00:36:00;5.30;;;2.78;;
49590;SDS011;35496;-21.974;-46.800;2023-07-24T00:38:26;4.40;;;2.88;;
49590;SDS011;35496;-21.974;-46.800;2023-07-24T00:40:52;5.65;;;3.22;;
49590;SDS011;35496;-21.974;-46.800;2023-07-24T00:43:18;7.20;;;2.83;;
49590;SDS011;35496;-21.974;-46.800;2023-07-24T00:45:44;10.60;;;2.78;;
49590;SDS011;35496;-21.974;-46.800;2023-07-24T00:48:11;4.43;;;3.13;;
49590;SDS011;35496;-21.974;-46.800;2023-07-24T00:50:37;4.18;;;2.80;;
49590;SDS011;35496;-21.974;-46.800;2023-07-24T00:53:03;6.88;;;3.05;;
49590;SDS011;35496;-21.974;-46.800;2023-07-24T00:55:29;3.95;;;2.50;;
49590;SDS011;35496;-21.974;-46.800;2023-07-24T00:57:57;7.00;;;2.15;;
49590;SDS011;35496;-21.974;-46.800;2023-07-24T01:00:23;2.97;;;2.17;;
49590;SDS011;35496;-21.974;-46.800;2023-07-24T01:02:49;10.75;;;3.28;;
49590;SDS011;35496;-21.974;-46.800;2023-07-24T01:05:15;7.35;;;3.00;;
49590;SDS011;35496;-21.974;-46.800;2023-07-24T01:07:42;5.03;;;3.15;;
49590;SDS011;35496;-21.974;-46.800;2023-07-24T01:10:08;4.88;;;2.42;;
49590;SDS011;35496;-21.974;-46.800;2023-07-24T01:12:58;5.00;;;2.97;;
49590;SDS011;35496;-21.974;-46.800;2023-07-24T01:18:00;4.97;;;3.35;;
49590;SDS011;35496;-21.974;-46.800;2023-07-24T01:20:26;2.78;;;1.98;;
49590;SDS011;35496;-21.974;-46.800;2023-07-24T01:22:57;5.95;;;2.88;;
49590;SDS011;35496;-21.974;-46.800;2023-07-24T01:25:33;3.67;;;2.15;;
49590;SDS011;35496;-21.974;-46.800;2023-07-24T01:28:09;9.00;;;2.42;;
49590;SDS011;35496;-21.974;-46.800;2023-07-24T01:30:35;2.90;;;1.98;;
49590;SDS011;35496;-21.974;-46.800;2023-07-24T01:33:01;3.35;;;2.30;;
49590;SDS011;35496;-21.974;-46.800;2023-07-24T01:35:28;4.07;;;2.97;;
49590;SDS011;35496;-21.974;-46.800;2023-07-24T01:37:55;4.28;;;2.78;;
49590;SDS011;35496;-21.974;-46.800;2023-07-24T01:40:21;5.72;;;2.85;;
49590;SDS011;35496;-21.974;-46.800;2023-07-24T01:42:48;2.83;;;1.95;;
49590;SDS011;35496;-21.974;-46.800;2023-07-24T01:45:15;5.82;;;2.40;;
49590;SDS011;35496;-21.974;-46.800;2023-07-24T01:47:41;9.10;;;1.98;;
49590;SDS011;35496;-21.974;-46.800;2023-07-24T01:50:07;6.30;;;2.47;;
49590;SDS011;35496;-21.974;-46.800;2023-07-24T01:52:33;6.25;;;2.63;;
49590;SDS011;35496;-21.974;-46.800;2023-07-24T01:54:59;7.07;;;2.92;;
49590;SDS011;35496;-21.974;-46.800;2023-07-24T01:57:26;9.10;;;2.92;;
49590;SDS011;35496;-21.974;-46.800;2023-07-24T01:59:52;3.75;;;2.08;;
49590;SDS011;35496;-21.974;-46.800;2023-07-24T02:02:18;6.93;;;2.60;;
49590;SDS011;35496;-21.974;-46.800;2023-07-24T02:04:45;7.18;;;2.28;;
49590;SDS011;35496;-21.974;-46.800;2023-07-24T02:07:11;2.78;;;2.47;;
49590;SDS011;35496;-21.974;-46.800;2023-07-24T02:09:37;1.60;;;1.42;;
49590;SDS011;35496;-21.974;-46.800;2023-07-24T02:12:04;6.82;;;2.03;;
49590;SDS011;35496;-21.974;-46.800;2023-07-24T02:14:30;2.63;;;1.77;;
49590;SDS011;35496;-21.974;-46.800;2023-07-24T02:16:56;4.35;;;2.83;;
49590;SDS011;35496;-21.974;-46.800;2023-07-24T02:19:22;6.55;;;3.17;;
49590;SDS011;35496;-21.974;-46.800;2023-07-24T02:21:48;4.60;;;2.53;;
49590;SDS011;35496;-21.974;-46.800;2023-07-24T02:24:14;6.15;;;2.50;;
49590;SDS011;35496;-21.974;-46.800;2023-07-24T02:26:40;6.40;;;3.30;;
49590;SDS011;35496;-21.974;-46.800;2023-07-24T02:29:06;7.97;;;4.45;;
49590;SDS011;35496;-21.974;-46.800;2023-07-24T02:31:32;8.93;;;4.43;;
49590;SDS011;35496;-21.974;-46.800;2023-07-24T02:33:58;10.65;;;4.47;;
49590;SDS011;35496;-21.974;-46.800;2023-07-24T02:36:24;6.75;;;4.18;;
49590;SDS011;35496;-21.974;-46.800;2023-07-24T02:38:50;10.18;;;4.30;;
49590;SDS011;35496;-21.974;-46.800;2023-07-24T02:41:16;8.35;;;3.38;;
49590;SDS011;35496;-21.974;-46.800;2023-07-24T02:43:42;4.78;;;3.50;;
49590;SDS011;35496;-21.974;-46.800;2023-07-24T02:46:08;4.10;;;2.20;;
49590;SDS011;35496;-21.974;-46.800;2023-07-24T02:48:34;8.45;;;3.20;;
49590;SDS011;35496;-21.974;-46.800;2023-07-24T02:51:00;2.83;;;2.38;;
49590;SDS011;35496;-21.974;-46.800;2023-07-24T02:53:26;19.98;;;2.58;;
49590;SDS011;35496;-21.974;-46.800;2023-07-24T02:55:52;2.58;;;1.63;;
49590;SDS011;35496;-21.974;-46.800;2023-07-24T02:58:18;7.25;;;2.33;;
49590;SDS011;35496;-21.974;-46.800;2023-07-24T03:00:44;4.25;;;1.70;;
49590;SDS011;35496;-21.974;-46.800;2023-07-24T03:03:11;2.33;;;1.30;;
49590;SDS011;35496;-21.974;-46.800;2023-07-24T03:05:37;5.60;;;1.98;;
49590;SDS011;35496;-21.974;-46.800;2023-07-24T03:08:03;4.45;;;3.25;;
49590;SDS011;35496;-21.974;-46.800;2023-07-24T03:10:29;4.38;;;2.05;;
49590;SDS011;35496;-21.974;-46.800;2023-07-24T03:12:55;2.38;;;1.90;;
49590;SDS011;35496;-21.974;-46.800;2023-07-24T03:15:21;5.60;;;4.07;;
49590;SDS011;35496;-21.974;-46.800;2023-07-24T03:17:51;6.32;;;4.47;;
49590;SDS011;35496;-21.974;-46.800;2023-07-24T03:20:17;6.18;;;4.10;;
49590;SDS011;35496;-21.974;-46.800;2023-07-24T03:22:44;5.28;;;3.65;;
49590;SDS011;35496;-21.974;-46.800;2023-07-24T03:25:10;9.88;;;3.80;;
49590;SDS011;35496;-21.974;-46.800;2023-07-24T03:27:36;10.55;;;4.28;;
49590;SDS011;35496;-21.974;-46.800;2023-07-24T03:30:02;12.73;;;2.40;;
49590;SDS011;35496;-21.974;-46.800;2023-07-24T03:32:29;10.38;;;2.30;;
49590;SDS011;35496;-21.974;-46.800;2023-07-24T03:34:54;5.55;;;2.35;;
49590;SDS011;35496;-21.974;-46.800;2023-07-24T03:37:21;4.55;;;2.40;;
49590;SDS011;35496;-21.974;-46.800;2023-07-24T03:39:46;6.65;;;2.25;;
49590;SDS011;35496;-21.974;-46.800;2023-07-24T03:42:23;8.65;;;1.83;;
49590;SDS011;35496;-21.974;-46.800;2023-07-24T03:44:49;2.38;;;2.17;;
49590;SDS011;35496;-21.974;-46.800;2023-07-24T03:47:15;4.18;;;1.95;;
49590;SDS011;35496;-21.974;-46.800;2023-07-24T03:49:41;2.08;;;1.80;;
49590;SDS011;35496;-21.974;-46.800;2023-07-24T03:52:07;3.38;;;2.28;;
49590;SDS011;35496;-21.974;-46.800;2023-07-24T03:54:33;6.53;;;2.10;;
49590;SDS011;35496;-21.974;-46.800;2023-07-24T03:56:59;3.08;;;1.42;;
49590;SDS011;35496;-21.974;-46.800;2023-07-24T03:59:25;7.57;;;1.70;;
49590;SDS011;35496;-21.974;-46.800;2023-07-24T04:01:51;5.65;;;2.13;;
49590;SDS011;35496;-21.974;-46.800;2023-07-24T04:04:17;5.72;;;3.38;;
49590;SDS011;35496;-21.974;-46.800;2023-07-24T04:06:43;5.93;;;3.30;;
49590;SDS011;35496;-21.974;-46.800;2023-07-24T04:09:09;15.57;;;2.75;;
49590;SDS011;35496;-21.974;-46.800;2023-07-24T04:11:40;2.53;;;2.20;;
49590;SDS011;35496;-21.974;-46.800;2023-07-24T04:14:06;2.28;;;2.05;;
49590;SDS011;35496;-21.974;-46.800;2023-07-24T04:16:32;8.85;;;5.15;;
49590;SDS011;35496;-21.974;-46.800;2023-07-24T04:18:58;6.38;;;3.50;;
49590;SDS011;35496;-21.974;-46.800;2023-07-24T04:21:24;4.40;;;3.00;;
49590;SDS011;35496;-21.974;-46.800;2023-07-24T04:23:50;9.75;;;4.22;;
49590;SDS011;35496;-21.974;-46.800;2023-07-24T04:26:16;4.38;;;2.85;;
49590;SDS011;35496;-21.974;-46.800;2023-07-24T04:28:42;3.65;;;2.28;;
49590;SDS011;35496;-21.974;-46.800;2023-07-24T04:31:08;5.60;;;2.70;;
49590;SDS011;35496;-21.974;-46.800;2023-07-24T04:33:34;5.22;;;1.77;;
49590;SDS011;35496;-21.974;-46.800;2023-07-24T04:36:00;7.20;;;2.65;;
49590;SDS011;35496;-21.974;-46.800;2023-07-24T04:38:26;3.63;;;1.80;;
49590;SDS011;35496;-21.974;-46.800;2023-07-24T04:40:52;5.70;;;3.88;;
49590;SDS011;35496;-21.974;-46.800;2023-07-24T04:43:19;5.25;;;4.05;;
49590;SDS011;35496;-21.974;-46.800;2023-07-24T04:45:45;4.80;;;2.88;;
49590;SDS011;35496;-21.974;-46.800;2023-07-24T04:48:11;3.70;;;2.10;;
49590;SDS011;35496;-21.974;-46.800;2023-07-24T04:50:37;5.20;;;2.03;;
49590;SDS011;35496;-21.974;-46.800;2023-07-24T04:53:03;7.07;;;2.55;;
49590;SDS011;35496;-21.974;-46.800;2023-07-24T04:55:29;3.15;;;2.83;;
49590;SDS011;35496;-21.974;-46.800;2023-07-24T04:57:55;6.80;;;4.22;;
49590;SDS011;35496;-21.974;-46.800;2023-07-24T05:00:21;8.75;;;3.70;;
49590;SDS011;35496;-21.974;-46.800;2023-07-24T05:02:47;7.45;;;3.83;;
49590;SDS011;35496;-21.974;-46.800;2023-07-24T05:05:13;6.10;;;3.10;;
49590;SDS011;35496;-21.974;-46.800;2023-07-24T05:07:39;8.77;;;3.72;;
49590;SDS011;35496;-21.974;-46.800;2023-07-24T05:10:05;4.85;;;2.70;;
49590;SDS011;35496;-21.974;-46.800;2023-07-24T05:12:31;3.95;;;3.03;;
49590;SDS011;35496;-21.974;-46.800;2023-07-24T05:14:57;6.85;;;3.20;;
49590;SDS011;35496;-21.974;-46.800;2023-07-24T05:17:23;7.20;;;3.83;;
49590;SDS011;35496;-21.974;-46.800;2023-07-24T05:19:49;7.63;;;3.20;;
49590;SDS011;35496;-21.974;-46.800;2023-07-24T05:22:15;4.68;;;2.38;;
49590;SDS011;35496;-21.974;-46.800;2023-07-24T05:24:41;3.53;;;2.15;;
49590;SDS011;35496;-21.974;-46.800;2023-07-24T05:27:07;2.97;;;1.85;;
49590;SDS011;35496;-21.974;-46.800;2023-07-24T05:29:33;7.38;;;2.78;;
49590;SDS011;35496;-21.974;-46.800;2023-07-24T05:31:59;4.43;;;2.42;;
49590;SDS011;35496;-21.974;-46.800;2023-07-24T05:34:25;4.65;;;2.17;;
49590;SDS011;35496;-21.974;-46.800;2023-07-24T05:36:51;8.20;;;1.80;;
49590;SDS011;35496;-21.974;-46.800;2023-07-24T05:39:17;1.98;;;1.30;;
49590;SDS011;35496;-21.974;-46.800;2023-07-24T05:41:43;3.47;;;1.92;;
49590;SDS011;35496;-21.974;-46.800;2023-07-24T05:44:09;6.00;;;3.00;;
49590;SDS011;35496;-21.974;-46.800;2023-07-24T05:46:35;3.92;;;2.30;;
49590;SDS011;35496;-21.974;-46.800;2023-07-24T05:49:01;6.57;;;2.53;;
49590;SDS011;35496;-21.974;-46.800;2023-07-24T05:51:27;3.75;;;1.77;;
49590;SDS011;35496;-21.974;-46.800;2023-07-24T05:53:53;4.15;;;2.30;;
49590;SDS011;35496;-21.974;-46.800;2023-07-24T05:56:20;6.30;;;2.08;;
49590;SDS011;35496;-21.974;-46.800;2023-07-24T05:58:46;6.60;;;2.33;;
49590;SDS011;35496;-21.974;-46.800;2023-07-24T06:01:12;6.43;;;2.15;;
49590;SDS011;35496;-21.974;-46.800;2023-07-24T06:03:38;3.65;;;1.42;;
49590;SDS011;35496;-21.974;-46.800;2023-07-24T06:06:06;5.47;;;2.22;;
49590;SDS011;35496;-21.974;-46.800;2023-07-24T06:08:32;4.68;;;2.35;;
49590;SDS011;35496;-21.974;-46.800;2023-07-24T06:10:58;5.38;;;1.60;;
49590;SDS011;35496;-21.974;-46.800;2023-07-24T06:13:24;5.13;;;2.55;;
49590;SDS011;35496;-21.974;-46.800;2023-07-24T06:15:51;4.90;;;2.35;;
49590;SDS011;35496;-21.974;-46.800;2023-07-24T06:18:17;4.57;;;1.77;;
49590;SDS011;35496;-21.974;-46.800;2023-07-24T06:20:43;8.18;;;2.60;;
49590;SDS011;35496;-21.974;-46.800;2023-07-24T06:23:09;5.35;;;2.03;;
49590;SDS011;35496;-21.974;-46.800;2023-07-24T06:25:35;4.32;;;2.60;;
49590;SDS011;35496;-21.974;-46.800;2023-07-24T06:28:01;6.25;;;2.90;;
49590;SDS011;35496;-21.974;-46.800;2023-07-24T06:30:27;8.35;;;2.55;;
49590;SDS011;35496;-21.974;-46.800;2023-07-24T06:32:54;4.53;;;1.60;;
49590;SDS011;35496;-21.974;-46.800;2023-07-24T06:35:20;4.03;;;1.75;;
49590;SDS011;35496;-21.974;-46.800;2023-07-24T06:37:46;4.25;;;2.50;;
49590;SDS011;35496;-21.974;-46.800;2023-07-24T06:40:12;6.07;;;2.38;;
49590;SDS011;35496;-21.974;-46.800;2023-07-24T06:42:38;7.55;;;2.42;;
49590;SDS011;35496;-21.974;-46.800;2023-07-24T06:45:04;11.18;;;2.78;;
49590;SDS011;35496;-21.974;-46.800;2023-07-24T06:47:30;8.63;;;3.28;;
49590;SDS011;35496;-21.974;-46.800;2023-07-24T06:49:56;7.03;;;3.10;;
49590;SDS011;35496;-21.974;-46.800;2023-07-24T06:52:23;12.25;;;3.20;;
49590;SDS011;35496;-21.974;-46.800;2023-07-24T06:54:49;7.28;;;4.00;;
49590;SDS011;35496;-21.974;-46.800;2023-07-24T06:57:15;6.45;;;2.95;;
49590;SDS011;35496;-21.974;-46.800;2023-07-24T06:59:41;6.88;;;2.70;;
49590;SDS011;35496;-21.974;-46.800;2023-07-24T07:02:07;7.57;;;2.78;;
49590;SDS011;35496;-21.974;-46.800;2023-07-24T07:04:33;5.35;;;1.90;;
49590;SDS011;35496;-21.974;-46.800;2023-07-24T07:06:59;10.13;;;2.22;;
49590;SDS011;35496;-21.974;-46.800;2023-07-24T07:09:25;5.22;;;2.03;;
49590;SDS011;35496;-21.974;-46.800;2023-07-24T07:11:51;4.40;;;2.78;;
49590;SDS011;35496;-21.974;-46.800;2023-07-24T07:14:17;4.80;;;2.15;;
49590;SDS011;35496;-21.974;-46.800;2023-07-24T07:16:43;7.30;;;2.92;;
49590;SDS011;35496;-21.974;-46.800;2023-07-24T07:19:09;5.47;;;2.85;;
49590;SDS011;35496;-21.974;-46.800;2023-07-24T07:21:35;9.20;;;2.60;;
49590;SDS011;35496;-21.974;-46.800;2023-07-24T07:24:01;7.43;;;1.90;;
49590;SDS011;35496;-21.974;-46.800;2023-07-24T07:26:28;4.97;;;2.05;;
49590;SDS011;35496;-21.974;-46.800;2023-07-24T07:28:55;3.92;;;2.10;;
49590;SDS011;35496;-21.974;-46.800;2023-07-24T07:31:21;3.03;;;1.55;;
49590;SDS011;35496;-21.974;-46.800;2023-07-24T07:33:47;3.83;;;2.05;;
49590;SDS011;35496;-21.974;-46.800;2023-07-24T07:36:13;4.70;;;2.05;;
49590;SDS011;35496;-21.974;-46.800;2023-07-24T07:38:40;4.03;;;1.92;;
49590;SDS011;35496;-21.974;-46.800;2023-07-24T07:41:06;3.80;;;2.63;;
49590;SDS011;35496;-21.974;-46.800;2023-07-24T07:43:32;5.35;;;1.88;;
49590;SDS011;35496;-21.974;-46.800;2023-07-24T07:45:58;8.70;;;2.53;;
49590;SDS011;35496;-21.974;-46.800;2023-07-24T07:48:27;8.48;;;2.63;;
49590;SDS011;35496;-21.974;-46.800;2023-07-24T07:50:53;11.00;;;2.45;;
49590;SDS011;35496;-21.974;-46.800;2023-07-24T07:53:20;3.95;;;2.00;;
49590;SDS011;35496;-21.974;-46.800;2023-07-24T07:55:46;4.20;;;2.00;;
49590;SDS011;35496;-21.974;-46.800;2023-07-24T07:58:12;7.93;;;2.35;;
49590;SDS011;35496;-21.974;-46.800;2023-07-24T08:00:38;6.00;;;2.53;;
49590;SDS011;35496;-21.974;-46.800;2023-07-24T08:03:05;12.15;;;3.55;;
49590;SDS011;35496;-21.974;-46.800;2023-07-24T08:05:31;4.70;;;2.05;;
49590;SDS011;35496;-21.974;-46.800;2023-07-24T08:07:57;2.25;;;1.52;;
49590;SDS011;35496;-21.974;-46.800;2023-07-24T08:10:23;3.08;;;1.50;;
49590;SDS011;35496;-21.974;-46.800;2023-07-24T08:12:49;2.55;;;2.13;;
49590;SDS011;35496;-21.974;-46.800;2023-07-24T08:15:15;4.90;;;1.52;;
49590;SDS011;35496;-21.974;-46.800;2023-07-24T08:17:42;1.30;;;1.25;;
49590;SDS011;35496;-21.974;-46.800;2023-07-24T08:20:08;1.77;;;1.40;;
49590;SDS011;35496;-21.974;-46.800;2023-07-24T08:22:34;3.80;;;1.40;;
49590;SDS011;35496;-21.974;-46.800;2023-07-24T08:25:00;8.95;;;1.80;;
49590;SDS011;35496;-21.974;-46.800;2023-07-24T08:27:26;4.57;;;2.13;;
49590;SDS011;35496;-21.974;-46.800;2023-07-24T08:29:52;4.43;;;1.98;;
49590;SDS011;35496;-21.974;-46.800;2023-07-24T08:32:18;2.33;;;1.92;;
49590;SDS011;35496;-21.974;-46.800;2023-07-24T08:34:45;6.50;;;2.08;;
49590;SDS011;35496;-21.974;-46.800;2023-07-24T08:37:14;5.95;;;1.95;;
49590;SDS011;35496;-21.974;-46.800;2023-07-24T08:39:40;2.25;;;1.77;;
49590;SDS011;35496;-21.974;-46.800;2023-07-24T08:42:10;4.10;;;1.77;;
49590;SDS011;35496;-21.974;-46.800;2023-07-24T08:44:37;3.30;;;1.88;;
49590;SDS011;35496;-21.974;-46.800;2023-07-24T08:47:03;11.02;;;2.03;;
49590;SDS011;35496;-21.974;-46.800;2023-07-24T08:49:29;4.22;;;1.48;;
49590;SDS011;35496;-21.974;-46.800;2023-07-24T08:51:56;2.65;;;1.48;;
49590;SDS011;35496;-21.974;-46.800;2023-07-24T08:54:22;7.78;;;1.80;;
49590;SDS011;35496;-21.974;-46.800;2023-07-24T08:56:50;3.25;;;1.65;;
49590;SDS011;35496;-21.974;-46.800;2023-07-24T08:59:17;6.30;;;1.40;;
49590;SDS011;35496;-21.974;-46.800;2023-07-24T09:01:43;5.95;;;3.08;;
49590;SDS011;35496;-21.974;-46.800;2023-07-24T09:04:09;3.03;;;1.73;;
49590;SDS011;35496;-21.974;-46.800;2023-07-24T09:06:36;3.85;;;1.55;;
49590;SDS011;35496;-21.974;-46.800;2023-07-24T09:09:11;5.47;;;1.60;;
49590;SDS011;35496;-21.974;-46.800;2023-07-24T09:11:58;3.88;;;1.15;;
49590;SDS011;35496;-21.974;-46.800;2023-07-24T09:14:28;3.67;;;1.65;;
49590;SDS011;35496;-21.974;-46.800;2023-07-24T09:17:08;4.15;;;1.95;;
49590;SDS011;35496;-21.974;-46.800;2023-07-24T09:19:34;5.88;;;2.17;;
49590;SDS011;35496;-21.974;-46.800;2023-07-24T09:22:09;7.68;;;2.03;;
49590;SDS011;35496;-21.974;-46.800;2023-07-24T09:24:36;8.55;;;2.15;;
49590;SDS011;35496;-21.974;-46.800;2023-07-24T09:27:04;2.63;;;1.85;;
49590;SDS011;35496;-21.974;-46.800;2023-07-24T09:29:31;3.22;;;1.77;;
49590;SDS011;35496;-21.974;-46.800;2023-07-24T09:31:57;6.10;;;1.80;;
49590;SDS011;35496;-21.974;-46.800;2023-07-24T09:34:23;3.65;;;2.13;;
49590;SDS011;35496;-21.974;-46.800;2023-07-24T09:36:51;9.55;;;2.95;;
49590;SDS011;35496;-21.974;-46.800;2023-07-24T09:39:26;4.55;;;1.63;;
49590;SDS011;35496;-21.974;-46.800;2023-07-24T09:41:53;3.42;;;1.48;;
49590;SDS011;35496;-21.974;-46.800;2023-07-24T09:44:20;4.95;;;1.52;;
49590;SDS011;35496;-21.974;-46.800;2023-07-24T09:46:46;5.47;;;2.97;;
49590;SDS011;35496;-21.974;-46.800;2023-07-24T09:49:12;9.13;;;1.75;;
49590;SDS011;35496;-21.974;-46.800;2023-07-24T09:51:38;5.35;;;1.73;;
49590;SDS011;35496;-21.974;-46.800;2023-07-24T09:57:06;6.03;;;2.00;;
49590;SDS011;35496;-21.974;-46.800;2023-07-24T09:59:34;2.38;;;2.05;;
49590;SDS011;35496;-21.974;-46.800;2023-07-24T10:02:01;3.60;;;2.33;;
49590;SDS011;35496;-21.974;-46.800;2023-07-24T10:04:27;3.72;;;2.00;;
49590;SDS011;35496;-21.974;-46.800;2023-07-24T10:06:53;3.60;;;1.70;;
49590;SDS011;35496;-21.974;-46.800;2023-07-24T10:09:19;2.30;;;1.60;;
49590;SDS011;35496;-21.974;-46.800;2023-07-24T10:11:48;7.35;;;2.67;;
49590;SDS011;35496;-21.974;-46.800;2023-07-24T10:14:14;5.75;;;2.40;;
49590;SDS011;35496;-21.974;-46.800;2023-07-24T10:16:40;5.53;;;2.05;;
49590;SDS011;35496;-21.974;-46.800;2023-07-24T10:19:13;4.68;;;2.28;;
49590;SDS011;35496;-21.974;-46.800;2023-07-24T10:21:44;4.80;;;2.42;;
49590;SDS011;35496;-21.974;-46.800;2023-07-24T10:24:10;3.42;;;3.03;;
49590;SDS011;35496;-21.974;-46.800;2023-07-24T10:26:36;5.68;;;2.13;;
49590;SDS011;35496;-21.974;-46.800;2023-07-24T10:29:02;9.50;;;2.50;;
49590;SDS011;35496;-21.974;-46.800;2023-07-24T10:31:29;5.03;;;2.60;;
49590;SDS011;35496;-21.974;-46.800;2023-07-24T10:33:56;6.97;;;3.45;;
49590;SDS011;35496;-21.974;-46.800;2023-07-24T10:36:32;15.65;;;3.78;;
49590;SDS011;35496;-21.974;-46.800;2023-07-24T10:38:58;4.32;;;2.20;;
49590;SDS011;35496;-21.974;-46.800;2023-07-24T10:41:36;8.00;;;1.85;;
49590;SDS011;35496;-21.974;-46.800;2023-07-24T10:44:02;3.85;;;1.77;;
49590;SDS011;35496;-21.974;-46.800;2023-07-24T10:46:41;7.45;;;3.05;;
49590;SDS011;35496;-21.974;-46.800;2023-07-24T10:49:11;12.95;;;2.08;;
49590;SDS011;35496;-21.974;-46.800;2023-07-24T10:51:37;5.03;;;2.67;;
49590;SDS011;35496;-21.974;-46.800;2023-07-24T10:54:03;3.80;;;1.70;;
49590;SDS011;35496;-21.974;-46.800;2023-07-24T10:56:29;6.45;;;2.25;;
49590;SDS011;35496;-21.974;-46.800;2023-07-24T10:58:55;2.53;;;1.85;;
49590;SDS011;35496;-21.974;-46.800;2023-07-24T11:01:21;7.82;;;2.90;;
49590;SDS011;35496;-21.974;-46.800;2023-07-24T11:03:49;4.72;;;1.90;;
49590;SDS011;35496;-21.974;-46.800;2023-07-24T11:06:16;5.15;;;1.65;;
49590;SDS011;35496;-21.974;-46.800;2023-07-24T11:08:50;3.85;;;1.92;;
49590;SDS011;35496;-21.974;-46.800;2023-07-24T11:11:16;3.58;;;2.03;;
49590;SDS011;35496;-21.974;-46.800;2023-07-24T11:13:42;4.03;;;1.95;;
49590;SDS011;35496;-21.974;-46.800;2023-07-24T11:16:08;3.17;;;2.00;;
49590;SDS011;35496;-21.974;-46.800;2023-07-24T11:18:44;5.82;;;2.70;;
49590;SDS011;35496;-21.974;-46.800;2023-07-24T11:21:11;4.75;;;1.88;;
49590;SDS011;35496;-21.974;-46.800;2023-07-24T11:23:37;5.03;;;2.75;;
49590;SDS011;35496;-21.974;-46.800;2023-07-24T11:28:39;5.25;;;2.17;;
49590;SDS011;35496;-21.974;-46.800;2023-07-24T11:31:05;3.65;;;2.10;;
49590;SDS011;35496;-21.974;-46.800;2023-07-24T11:33:31;4.25;;;2.20;;
49590;SDS011;35496;-21.974;-46.800;2023-07-24T11:35:58;1.73;;;1.25;;
49590;SDS011;35496;-21.974;-46.800;2023-07-24T11:38:24;2.22;;;2.00;;
49590;SDS011;35496;-21.974;-46.800;2023-07-24T11:40:50;4.50;;;1.65;;
49590;SDS011;35496;-21.974;-46.800;2023-07-24T11:43:21;6.65;;;2.00;;
49590;SDS011;35496;-21.974;-46.800;2023-07-24T11:45:48;3.13;;;2.67;;
49590;SDS011;35496;-21.974;-46.800;2023-07-24T11:48:17;7.45;;;1.38;;
49590;SDS011;35496;-21.974;-46.800;2023-07-24T11:50:48;2.28;;;1.65;;
49590;SDS011;35496;-21.974;-46.800;2023-07-24T11:53:30;2.90;;;1.48;;
49590;SDS011;35496;-21.974;-46.800;2023-07-24T11:55:59;3.85;;;2.33;;
49590;SDS011;35496;-21.974;-46.800;2023-07-24T11:58:27;2.13;;;1.92;;
49590;SDS011;35496;-21.974;-46.800;2023-07-24T12:00:53;2.70;;;1.58;;
49590;SDS011;35496;-21.974;-46.800;2023-07-24T12:03:20;2.70;;;1.63;;
49590;SDS011;35496;-21.974;-46.800;2023-07-24T12:05:47;2.78;;;1.30;;
49590;SDS011;35496;-21.974;-46.800;2023-07-24T12:08:13;1.10;;;0.93;;
49590;SDS011;35496;-21.974;-46.800;2023-07-24T12:10:43;3.00;;;1.83;;
49590;SDS011;35496;-21.974;-46.800;2023-07-24T12:13:09;4.60;;;1.95;;
49590;SDS011;35496;-21.974;-46.800;2023-07-24T12:15:35;3.85;;;1.70;;
49590;SDS011;35496;-21.974;-46.800;2023-07-24T12:18:02;1.30;;;1.13;;
49590;SDS011;35496;-21.974;-46.800;2023-07-24T12:20:28;2.90;;;1.85;;
49590;SDS011;35496;-21.974;-46.800;2023-07-24T12:22:54;2.60;;;1.10;;
49590;SDS011;35496;-21.974;-46.800;2023-07-24T12:25:20;3.70;;;1.30;;
49590;SDS011;35496;-21.974;-46.800;2023-07-24T12:27:47;4.68;;;2.38;;
49590;SDS011;35496;-21.974;-46.800;2023-07-24T12:30:13;1.50;;;1.35;;
49590;SDS011;35496;-21.974;-46.800;2023-07-24T12:32:39;7.55;;;2.15;;
49590;SDS011;35496;-21.974;-46.800;2023-07-24T12:35:05;1.88;;;1.38;;
49590;SDS011;35496;-21.974;-46.800;2023-07-24T12:37:31;1.60;;;1.25;;
49590;SDS011;35496;-21.974;-46.800;2023-07-24T12:39:57;4.65;;;1.77;;
49590;SDS011;35496;-21.974;-46.800;2023-07-24T12:42:23;1.67;;;1.45;;
49590;SDS011;35496;-21.974;-46.800;2023-07-24T12:44:49;3.40;;;1.77;;
49590;SDS011;35496;-21.974;-46.800;2023-07-24T12:47:15;3.15;;;1.60;;
49590;SDS011;35496;-21.974;-46.800;2023-07-24T12:49:41;4.30;;;1.33;;
49590;SDS011;35496;-21.974;-46.800;2023-07-24T12:52:07;2.42;;;1.67;;
49590;SDS011;35496;-21.974;-46.800;2023-07-24T12:54:33;2.63;;;1.17;;
49590;SDS011;35496;-21.974;-46.800;2023-07-24T12:57:00;2.25;;;1.60;;
49590;SDS011;35496;-21.974;-46.800;2023-07-24T12:59:27;4.43;;;1.40;;
49590;SDS011;35496;-21.974;-46.800;2023-07-24T13:01:54;5.40;;;2.13;;
49590;SDS011;35496;-21.974;-46.800;2023-07-24T13:04:20;2.08;;;1.95;;
49590;SDS011;35496;-21.974;-46.800;2023-07-24T13:06:46;3.75;;;2.38;;
49590;SDS011;35496;-21.974;-46.800;2023-07-24T13:09:12;6.32;;;2.25;;
49590;SDS011;35496;-21.974;-46.800;2023-07-24T13:11:38;4.13;;;1.58;;
49590;SDS011;35496;-21.974;-46.800;2023-07-24T13:14:04;14.40;;;2.38;;
49590;SDS011;35496;-21.974;-46.800;2023-07-24T13:16:30;2.83;;;1.70;;
49590;SDS011;35496;-21.974;-46.800;2023-07-24T13:18:56;3.85;;;1.48;;
49590;SDS011;35496;-21.974;-46.800;2023-07-24T13:21:22;3.50;;;2.13;;
49590;SDS011;35496;-21.974;-46.800;2023-07-24T13:23:48;3.08;;;1.88;;
49590;SDS011;35496;-21.974;-46.800;2023-07-24T13:26:15;3.53;;;2.20;;
49590;SDS011;35496;-21.974;-46.800;2023-07-24T13:28:41;2.33;;;1.63;;
49590;SDS011;35496;-21.974;-46.800;2023-07-24T13:31:14;4.68;;;1.63;;
49590;SDS011;35496;-21.974;-46.800;2023-07-24T13:33:41;2.67;;;1.48;;
49590;SDS011;35496;-21.974;-46.800;2023-07-24T13:36:07;2.38;;;1.55;;
49590;SDS011;35496;-21.974;-46.800;2023-07-24T13:38:33;1.73;;;1.23;;
49590;SDS011;35496;-21.974;-46.800;2023-07-24T13:41:00;2.65;;;1.60;;
49590;SDS011;35496;-21.974;-46.800;2023-07-24T13:43:27;4.70;;;1.85;;
49590;SDS011;35496;-21.974;-46.800;2023-07-24T13:45:53;2.55;;;1.65;;
49590;SDS011;35496;-21.974;-46.800;2023-07-24T13:48:19;2.38;;;1.40;;
49590;SDS011;35496;-21.974;-46.800;2023-07-24T13:50:45;5.00;;;1.80;;
49590;SDS011;35496;-21.974;-46.800;2023-07-24T13:53:11;1.00;;;1.00;;
49590;SDS011;35496;-21.974;-46.800;2023-07-24T13:55:37;1.80;;;1.35;;
49590;SDS011;35496;-21.974;-46.800;2023-07-24T13:58:03;2.65;;;1.55;;
49590;SDS011;35496;-21.974;-46.800;2023-07-24T14:00:29;5.15;;;1.52;;
49590;SDS011;35496;-21.974;-46.800;2023-07-24T14:02:55;6.40;;;1.63;;
49590;SDS011;35496;-21.974;-46.800;2023-07-24T14:05:21;4.72;;;1.60;;
49590;SDS011;35496;-21.974;-46.800;2023-07-24T14:07:47;2.13;;;1.15;;
49590;SDS011;35496;-21.974;-46.800;2023-07-24T14:10:13;1.30;;;0.95;;
49590;SDS011;35496;-21.974;-46.800;2023-07-24T14:12:39;1.55;;;1.20;;
49590;SDS011;35496;-21.974;-46.800;2023-07-24T14:15:06;2.67;;;1.15;;